sensor_id;sensor_type;location;lat;lon;timestamp;temperature;humidity
54516;DHT22;40422;45.892;4.738;2023-03-02T04:01:14;2.10;99.90
54516;DHT22;40422;45.892;4.738;2023-03-02T04:03:39;2.10;99.90
54516;DHT22;40422;45.892;4.738;2023-03-02T04:06:05;2.20;99.90
54516;DHT22;40422;45.892;4.738;2023-03-02T04:08:31;2.20;99.90
54516;DHT22;40422;45.892;4.738;2023-03-02T04:10:56;2.20;99.90
54516;DHT22;40422;45.892;4.738;2023-03-02T04:13:22;2.20;99.90
54516;DHT22;40422;45.892;4.738;2023-03-02T04:15:47;2.30;99.90
54516;DHT22;40422;45.892;4.738;2023-03-02T04:18:13;2.20;99.90
54516;DHT22;40422;45.892;4.738;2023-03-02T04:20:38;2.20;99.90
54516;DHT22;40422;45.892;4.738;2023-03-02T04:23:04;2.30;99.90
54516;DHT22;40422;45.892;4.738;2023-03-02T04:25:30;2.20;99.90
54516;DHT22;40422;45.892;4.738;2023-03-02T04:27:56;2.20;99.90
54516;DHT22;40422;45.892;4.738;2023-03-02T04:30:24;2.20;99.90
54516;DHT22;40422;45.892;4.738;2023-03-02T04:32:50;2.20;99.90
54516;DHT22;40422;45.892;4.738;2023-03-02T04:35:15;2.20;99.90
54516;DHT22;40422;45.892;4.738;2023-03-02T04:37:41;2.10;99.90
54516;DHT22;40422;45.892;4.738;2023-03-02T04:40:08;2.10;99.90
54516;DHT22;40422;45.892;4.738;2023-03-02T04:42:34;2.10;99.90
54516;DHT22;40422;45.892;4.738;2023-03-02T04:45:00;2.10;99.90
54516;DHT22;40422;45.892;4.738;2023-03-02T04:47:26;2.10;99.90
54516;DHT22;40422;45.892;4.738;2023-03-02T04:49:52;2.00;99.90
54516;DHT22;40422;45.892;4.738;2023-03-02T04:52:20;2.00;99.90
54516;DHT22;40422;45.892;4.738;2023-03-02T04:54:46;2.00;99.90
54516;DHT22;40422;45.892;4.738;2023-03-02T04:57:11;2.00;99.90
54516;DHT22;40422;45.892;4.738;2023-03-02T04:59:37;2.00;99.90
54516;DHT22;40422;45.892;4.738;2023-03-02T05:02:03;2.00;99.90
54516;DHT22;40422;45.892;4.738;2023-03-02T05:04:29;2.00;99.90
54516;DHT22;40422;45.892;4.738;2023-03-02T05:06:55;2.00;99.90
54516;DHT22;40422;45.892;4.738;2023-03-02T05:09:21;2.10;99.90
54516;DHT22;40422;45.892;4.738;2023-03-02T05:11:53;2.10;99.90
54516;DHT22;40422;45.892;4.738;2023-03-02T05:14:19;2.10;99.90
54516;DHT22;40422;45.892;4.738;2023-03-02T05:16:45;2.10;99.90
54516;DHT22;40422;45.892;4.738;2023-03-02T05:19:11;2.10;99.90
54516;DHT22;40422;45.892;4.738;2023-03-02T05:21:37;2.00;99.90
54516;DHT22;40422;45.892;4.738;2023-03-02T05:24:03;2.10;99.90
54516;DHT22;40422;45.892;4.738;2023-03-02T05:26:29;2.10;99.90
54516;DHT22;40422;45.892;4.738;2023-03-02T05:28:55;2.10;99.90
54516;DHT22;40422;45.892;4.738;2023-03-02T05:31:30;2.20;99.90
54516;DHT22;40422;45.892;4.738;2023-03-02T05:33:56;2.20;99.90
54516;DHT22;40422;45.892;4.738;2023-03-02T05:36:22;2.20;99.90
54516;DHT22;40422;45.892;4.738;2023-03-02T05:38:48;2.20;99.90
54516;DHT22;40422;45.892;4.738;2023-03-02T05:41:13;2.30;99.90
54516;DHT22;40422;45.892;4.738;2023-03-02T05:43:39;2.30;99.90
54516;DHT22;40422;45.892;4.738;2023-03-02T05:46:05;2.40;99.90
54516;DHT22;40422;45.892;4.738;2023-03-02T05:48:30;2.40;99.90
54516;DHT22;40422;45.892;4.738;2023-03-02T05:50:57;2.50;99.90
54516;DHT22;40422;45.892;4.738;2023-03-02T05:53:23;2.40;99.90
54516;DHT22;40422;45.892;4.738;2023-03-02T05:55:49;2.40;99.90
54516;DHT22;40422;45.892;4.738;2023-03-02T05:58:16;2.50;99.90
54516;DHT22;40422;45.892;4.738;2023-03-02T06:00:45;2.40;99.90
54516;DHT22;40422;45.892;4.738;2023-03-02T06:03:11;2.40;99.90
54516;DHT22;40422;45.892;4.738;2023-03-02T06:05:37;2.40;99.90
54516;DHT22;40422;45.892;4.738;2023-03-02T06:08:04;2.40;99.90
54516;DHT22;40422;45.892;4.738;2023-03-02T06:10:30;2.50;99.90
54516;DHT22;40422;45.892;4.738;2023-03-02T06:12:55;2.50;99.90
54516;DHT22;40422;45.892;4.738;2023-03-02T06:15:21;2.50;99.90
54516;DHT22;40422;45.892;4.738;2023-03-02T06:17:47;2.50;99.90
54516;DHT22;40422;45.892;4.738;2023-03-02T06:20:14;2.50;99.90
54516;DHT22;40422;45.892;4.738;2023-03-02T06:22:43;2.50;99.90
54516;DHT22;40422;45.892;4.738;2023-03-02T06:25:16;2.50;99.90
54516;DHT22;40422;45.892;4.738;2023-03-02T06:27:43;2.60;99.90
54516;DHT22;40422;45.892;4.738;2023-03-02T06:30:13;2.60;99.90
54516;DHT22;40422;45.892;4.738;2023-03-02T06:32:39;2.70;99.90
54516;DHT22;40422;45.892;4.738;2023-03-02T06:35:05;2.70;99.90
54516;DHT22;40422;45.892;4.738;2023-03-02T06:37:31;2.70;99.90
54516;DHT22;40422;45.892;4.738;2023-03-02T06:39:57;2.70;99.90
54516;DHT22;40422;45.892;4.738;2023-03-02T06:42:27;2.70;99.90
54516;DHT22;40422;45.892;4.738;2023-03-02T06:44:54;2.70;99.90
54516;DHT22;40422;45.892;4.738;2023-03-02T06:47:21;2.70;99.90
54516;DHT22;40422;45.892;4.738;2023-03-02T06:49:47;2.70;99.90
54516;DHT22;40422;45.892;4.738;2023-03-02T06:52:13;2.70;99.90
54516;DHT22;40422;45.892;4.738;2023-03-02T06:54:40;2.80;99.90
54516;DHT22;40422;45.892;4.738;2023-03-02T06:57:05;2.80;99.90
54516;DHT22;40422;45.892;4.738;2023-03-02T06:59:31;2.80;99.90
54516;DHT22;40422;45.892;4.738;2023-03-02T07:01:57;2.80;99.90
54516;DHT22;40422;45.892;4.738;2023-03-02T07:04:23;2.80;99.90
54516;DHT22;40422;45.892;4.738;2023-03-02T07:06:48;2.90;99.90
54516;DHT22;40422;45.892;4.738;2023-03-02T07:09:14;2.90;99.90
54516;DHT22;40422;45.892;4.738;2023-03-02T07:11:40;2.90;99.90
54516;DHT22;40422;45.892;4.738;2023-03-02T07:14:06;2.90;99.90
54516;DHT22;40422;45.892;4.738;2023-03-02T07:16:33;2.90;99.90
54516;DHT22;40422;45.892;4.738;2023-03-02T07:18:59;2.80;99.90
54516;DHT22;40422;45.892;4.738;2023-03-02T07:21:25;2.90;99.90
54516;DHT22;40422;45.892;4.738;2023-03-02T07:23:50;2.90;99.90
54516;DHT22;40422;45.892;4.738;2023-03-02T07:26:16;3.00;99.90
54516;DHT22;40422;45.892;4.738;2023-03-02T07:28:41;3.10;99.90
54516;DHT22;40422;45.892;4.738;2023-03-02T07:31:09;3.10;99.90
54516;DHT22;40422;45.892;4.738;2023-03-02T07:33:36;3.10;99.90
54516;DHT22;40422;45.892;4.738;2023-03-02T07:36:02;3.20;99.90
54516;DHT22;40422;45.892;4.738;2023-03-02T07:38:28;3.20;99.90
54516;DHT22;40422;45.892;4.738;2023-03-02T07:40:53;3.20;99.90
54516;DHT22;40422;45.892;4.738;2023-03-02T07:43:19;3.40;99.90
54516;DHT22;40422;45.892;4.738;2023-03-02T07:45:45;3.50;99.90
54516;DHT22;40422;45.892;4.738;2023-03-02T07:48:11;3.60;99.90
54516;DHT22;40422;45.892;4.738;2023-03-02T07:50:37;3.70;99.90
54516;DHT22;40422;45.892;4.738;2023-03-02T07:53:02;3.90;99.90
54516;DHT22;40422;45.892;4.738;2023-03-02T07:55:28;3.80;99.90
54516;DHT22;40422;45.892;4.738;2023-03-02T07:57:54;3.80;99.90
54516;DHT22;40422;45.892;4.738;2023-03-02T08:00:20;3.70;99.90
54516;DHT22;40422;45.892;4.738;2023-03-02T08:02:46;3.70;99.90
54516;DHT22;40422;45.892;4.738;2023-03-02T08:05:12;3.70;99.90
54516;DHT22;40422;45.892;4.738;2023-03-02T08:07:38;3.70;99.90
54516;DHT22;40422;45.892;4.738;2023-03-02T08:10:05;3.80;99.90
54516;DHT22;40422;45.892;4.738;2023-03-02T08:12:32;3.90;99.90
54516;DHT22;40422;45.892;4.738;2023-03-02T08:14:58;4.00;99.90
54516;DHT22;40422;45.892;4.738;2023-03-02T08:17:23;4.10;99.90
54516;DHT22;40422;45.892;4.738;2023-03-02T08:19:49;4.10;99.90
54516;DHT22;40422;45.892;4.738;2023-03-02T08:22:15;4.20;99.90
54516;DHT22;40422;45.892;4.738;2023-03-02T08:24:40;4.30;99.90
54516;DHT22;40422;45.892;4.738;2023-03-02T08:27:08;4.40;99.90
54516;DHT22;40422;45.892;4.738;2023-03-02T08:29:36;4.60;99.90
54516;DHT22;40422;45.892;4.738;2023-03-02T08:32:02;4.70;99.90
54516;DHT22;40422;45.892;4.738;2023-03-02T08:34:27;4.80;99.90
54516;DHT22;40422;45.892;4.738;2023-03-02T08:36:53;4.90;99.90
54516;DHT22;40422;45.892;4.738;2023-03-02T08:39:19;5.00;99.90
54516;DHT22;40422;45.892;4.738;2023-03-02T08:41:50;5.20;99.90
54516;DHT22;40422;45.892;4.738;2023-03-02T08:44:16;5.30;99.90
54516;DHT22;40422;45.892;4.738;2023-03-02T08:46:42;5.40;99.90
54516;DHT22;40422;45.892;4.738;2023-03-02T08:49:08;5.50;99.90
54516;DHT22;40422;45.892;4.738;2023-03-02T08:51:33;5.50;99.90
54516;DHT22;40422;45.892;4.738;2023-03-02T08:53:59;5.50;99.90
54516;DHT22;40422;45.892;4.738;2023-03-02T08:56:28;5.50;99.90
54516;DHT22;40422;45.892;4.738;2023-03-02T08:58:58;5.50;99.90
54516;DHT22;40422;45.892;4.738;2023-03-02T09:01:26;5.60;99.90
54516;DHT22;40422;45.892;4.738;2023-03-02T09:03:56;5.70;99.90
54516;DHT22;40422;45.892;4.738;2023-03-02T09:06:24;5.70;99.90
54516;DHT22;40422;45.892;4.738;2023-03-02T09:08:50;5.60;99.90
54516;DHT22;40422;45.892;4.738;2023-03-02T09:11:16;5.70;99.90
54516;DHT22;40422;45.892;4.738;2023-03-02T09:13:42;5.70;99.90
54516;DHT22;40422;45.892;4.738;2023-03-02T09:16:08;5.80;99.90
54516;DHT22;40422;45.892;4.738;2023-03-02T09:18:34;6.00;99.90
54516;DHT22;40422;45.892;4.738;2023-03-02T09:21:00;6.10;99.90
54516;DHT22;40422;45.892;4.738;2023-03-02T09:23:27;6.20;99.90
54516;DHT22;40422;45.892;4.738;2023-03-02T09:25:54;6.30;99.90
54516;DHT22;40422;45.892;4.738;2023-03-02T09:28:20;6.40;99.90
54516;DHT22;40422;45.892;4.738;2023-03-02T09:30:52;6.50;99.90
54516;DHT22;40422;45.892;4.738;2023-03-02T09:33:19;6.50;99.90
54516;DHT22;40422;45.892;4.738;2023-03-02T09:35:45;6.50;99.90
54516;DHT22;40422;45.892;4.738;2023-03-02T09:38:12;6.70;99.90
54516;DHT22;40422;45.892;4.738;2023-03-02T09:46:46;7.00;99.90
54516;DHT22;40422;45.892;4.738;2023-03-02T09:54:36;7.20;99.90
54516;DHT22;40422;45.892;4.738;2023-03-02T09:57:03;7.10;99.90
54516;DHT22;40422;45.892;4.738;2023-03-02T09:59:42;6.90;99.90
54516;DHT22;40422;45.892;4.738;2023-03-02T10:04:48;6.90;99.90
54516;DHT22;40422;45.892;4.738;2023-03-02T10:07:30;7.00;99.90
54516;DHT22;40422;45.892;4.738;2023-03-02T10:10:05;7.10;99.90
54516;DHT22;40422;45.892;4.738;2023-03-02T10:20:52;7.20;99.90
54516;DHT22;40422;45.892;4.738;2023-03-02T10:26:20;7.90;99.90
54516;DHT22;40422;45.892;4.738;2023-03-02T10:31:46;8.40;99.40
54516;DHT22;40422;45.892;4.738;2023-03-02T10:34:18;8.60;98.00
54516;DHT22;40422;45.892;4.738;2023-03-02T10:36:44;8.70;98.60
54516;DHT22;40422;45.892;4.738;2023-03-02T10:39:13;8.90;99.00
54516;DHT22;40422;45.892;4.738;2023-03-02T10:41:54;9.10;98.40
54516;DHT22;40422;45.892;4.738;2023-03-02T10:44:27;9.30;97.80
54516;DHT22;40422;45.892;4.738;2023-03-02T10:46:53;9.30;96.50
54516;DHT22;40422;45.892;4.738;2023-03-02T10:49:30;9.20;96.80
54516;DHT22;40422;45.892;4.738;2023-03-02T10:52:05;9.20;96.70
54516;DHT22;40422;45.892;4.738;2023-03-02T10:54:33;9.40;96.60
54516;DHT22;40422;45.892;4.738;2023-03-02T10:57:02;9.50;96.00
54516;DHT22;40422;45.892;4.738;2023-03-02T10:59:40;9.70;96.30
54516;DHT22;40422;45.892;4.738;2023-03-02T11:04:42;9.90;95.60
54516;DHT22;40422;45.892;4.738;2023-03-02T11:07:16;9.90;95.20
54516;DHT22;40422;45.892;4.738;2023-03-02T11:09:54;9.80;95.00
54516;DHT22;40422;45.892;4.738;2023-03-02T11:12:19;9.90;95.10
54516;DHT22;40422;45.892;4.738;2023-03-02T11:14:45;10.20;94.90
54516;DHT22;40422;45.892;4.738;2023-03-02T11:17:33;10.40;93.50
54516;DHT22;40422;45.892;4.738;2023-03-02T11:20:00;10.50;93.20
54516;DHT22;40422;45.892;4.738;2023-03-02T11:25:22;10.40;93.10
54516;DHT22;40422;45.892;4.738;2023-03-02T11:27:51;10.50;93.30
54516;DHT22;40422;45.892;4.738;2023-03-02T11:30:22;10.80;94.50
54516;DHT22;40422;45.892;4.738;2023-03-02T11:35:23;10.80;92.10
54516;DHT22;40422;45.892;4.738;2023-03-02T11:37:54;10.40;92.40
54516;DHT22;40422;45.892;4.738;2023-03-02T11:40:31;10.50;92.30
54516;DHT22;40422;45.892;4.738;2023-03-02T11:43:00;10.80;92.40
54516;DHT22;40422;45.892;4.738;2023-03-02T11:45:31;11.20;92.00
54516;DHT22;40422;45.892;4.738;2023-03-02T11:50:27;11.80;91.30
54516;DHT22;40422;45.892;4.738;2023-03-02T11:52:57;12.30;90.30
54516;DHT22;40422;45.892;4.738;2023-03-02T11:55:25;12.50;90.70
54516;DHT22;40422;45.892;4.738;2023-03-02T11:57:58;12.60;89.40
54516;DHT22;40422;45.892;4.738;2023-03-02T12:00:39;12.60;88.70
54516;DHT22;40422;45.892;4.738;2023-03-02T12:05:46;12.70;88.30
54516;DHT22;40422;45.892;4.738;2023-03-02T12:13:26;13.30;84.00
54516;DHT22;40422;45.892;4.738;2023-03-02T12:15:53;13.50;82.30
54516;DHT22;40422;45.892;4.738;2023-03-02T12:23:29;13.60;80.80
54516;DHT22;40422;45.892;4.738;2023-03-02T12:26:05;13.70;82.10
54516;DHT22;40422;45.892;4.738;2023-03-02T12:28:38;14.00;81.30
54516;DHT22;40422;45.892;4.738;2023-03-02T12:31:08;14.60;79.50
54516;DHT22;40422;45.892;4.738;2023-03-02T12:33:42;15.00;78.70
54516;DHT22;40422;45.892;4.738;2023-03-02T12:36:17;15.30;77.30
54516;DHT22;40422;45.892;4.738;2023-03-02T12:38:51;15.50;75.40
54516;DHT22;40422;45.892;4.738;2023-03-02T12:41:46;15.50;73.30
54516;DHT22;40422;45.892;4.738;2023-03-02T12:47:18;14.80;74.10
54516;DHT22;40422;45.892;4.738;2023-03-02T12:50:03;14.80;74.80
54516;DHT22;40422;45.892;4.738;2023-03-02T12:52:34;15.00;74.50
54516;DHT22;40422;45.892;4.738;2023-03-02T12:57:46;15.80;73.20
54516;DHT22;40422;45.892;4.738;2023-03-02T13:00:15;15.90;72.60
54516;DHT22;40422;45.892;4.738;2023-03-02T13:02:46;15.70;70.30
54516;DHT22;40422;45.892;4.738;2023-03-02T13:05:19;15.70;71.30
54516;DHT22;40422;45.892;4.738;2023-03-02T13:08:03;15.80;71.30
54516;DHT22;40422;45.892;4.738;2023-03-02T13:13:03;15.80;71.90
54516;DHT22;40422;45.892;4.738;2023-03-02T13:18:18;15.90;69.50
54516;DHT22;40422;45.892;4.738;2023-03-02T13:20:45;15.90;70.10
54516;DHT22;40422;45.892;4.738;2023-03-02T13:23:19;16.00;70.00
54516;DHT22;40422;45.892;4.738;2023-03-02T13:25:51;15.70;68.80
54516;DHT22;40422;45.892;4.738;2023-03-02T13:28:27;15.60;70.50
54516;DHT22;40422;45.892;4.738;2023-03-02T13:31:01;15.60;69.80
54516;DHT22;40422;45.892;4.738;2023-03-02T13:33:28;15.60;70.60
54516;DHT22;40422;45.892;4.738;2023-03-02T13:35:55;15.70;69.60
54516;DHT22;40422;45.892;4.738;2023-03-02T13:38:25;15.40;69.90
54516;DHT22;40422;45.892;4.738;2023-03-02T13:40:53;15.20;70.00
54516;DHT22;40422;45.892;4.738;2023-03-02T13:45:53;14.50;71.70
54516;DHT22;40422;45.892;4.738;2023-03-02T13:48:18;14.40;72.70
54516;DHT22;40422;45.892;4.738;2023-03-02T13:50:54;14.60;72.50
54516;DHT22;40422;45.892;4.738;2023-03-02T13:53:20;15.00;71.00
54516;DHT22;40422;45.892;4.738;2023-03-02T13:55:47;15.50;70.50
54516;DHT22;40422;45.892;4.738;2023-03-02T13:58:15;15.50;69.10
54516;DHT22;40422;45.892;4.738;2023-03-02T14:00:42;15.10;70.20
54516;DHT22;40422;45.892;4.738;2023-03-02T14:03:23;14.50;71.00
54516;DHT22;40422;45.892;4.738;2023-03-02T14:05:49;14.20;72.40
54516;DHT22;40422;45.892;4.738;2023-03-02T14:08:15;14.30;71.80
54516;DHT22;40422;45.892;4.738;2023-03-02T14:10:42;14.40;71.70
54516;DHT22;40422;45.892;4.738;2023-03-02T14:13:12;14.60;71.40
54516;DHT22;40422;45.892;4.738;2023-03-02T14:15:42;15.10;71.60
54516;DHT22;40422;45.892;4.738;2023-03-02T14:18:40;15.50;71.20
54516;DHT22;40422;45.892;4.738;2023-03-02T14:21:17;15.70;70.00
54516;DHT22;40422;45.892;4.738;2023-03-02T14:23:44;15.70;68.70
54516;DHT22;40422;45.892;4.738;2023-03-02T14:26:18;15.80;69.80
54516;DHT22;40422;45.892;4.738;2023-03-02T14:28:45;15.90;69.10
54516;DHT22;40422;45.892;4.738;2023-03-02T14:31:11;15.80;69.60
54516;DHT22;40422;45.892;4.738;2023-03-02T14:33:36;15.90;70.70
54516;DHT22;40422;45.892;4.738;2023-03-02T14:36:03;15.90;68.50
54516;DHT22;40422;45.892;4.738;2023-03-02T14:38:30;15.50;69.40
54516;DHT22;40422;45.892;4.738;2023-03-02T14:40:55;15.40;69.40
54516;DHT22;40422;45.892;4.738;2023-03-02T14:43:21;15.50;70.20
54516;DHT22;40422;45.892;4.738;2023-03-02T14:45:50;15.50;68.50
54516;DHT22;40422;45.892;4.738;2023-03-02T14:48:16;15.50;70.20
54516;DHT22;40422;45.892;4.738;2023-03-02T14:50:45;15.50;69.10
54516;DHT22;40422;45.892;4.738;2023-03-02T14:53:25;15.50;68.90
54516;DHT22;40422;45.892;4.738;2023-03-02T14:55:52;15.30;68.90
54516;DHT22;40422;45.892;4.738;2023-03-02T14:58:24;15.30;69.30
54516;DHT22;40422;45.892;4.738;2023-03-02T15:00:51;15.40;70.00
54516;DHT22;40422;45.892;4.738;2023-03-02T15:03:18;15.50;68.80
54516;DHT22;40422;45.892;4.738;2023-03-02T15:05:46;15.00;70.30
54516;DHT22;40422;45.892;4.738;2023-03-02T15:08:13;14.70;70.20
54516;DHT22;40422;45.892;4.738;2023-03-02T15:10:40;14.60;70.90
54516;DHT22;40422;45.892;4.738;2023-03-02T15:13:09;14.50;71.70
54516;DHT22;40422;45.892;4.738;2023-03-02T15:15:36;14.70;71.70
54516;DHT22;40422;45.892;4.738;2023-03-02T15:18:02;14.90;71.40
54516;DHT22;40422;45.892;4.738;2023-03-02T15:20:28;14.90;71.60
54516;DHT22;40422;45.892;4.738;2023-03-02T15:22:54;14.90;71.30
54516;DHT22;40422;45.892;4.738;2023-03-02T15:25:19;15.00;70.70
54516;DHT22;40422;45.892;4.738;2023-03-02T15:27:45;14.90;72.00
54516;DHT22;40422;45.892;4.738;2023-03-02T15:30:11;14.90;71.10
54516;DHT22;40422;45.892;4.738;2023-03-02T15:32:36;14.90;71.10
54516;DHT22;40422;45.892;4.738;2023-03-02T15:35:02;14.90;70.90
54516;DHT22;40422;45.892;4.738;2023-03-02T15:37:28;14.60;71.30
54516;DHT22;40422;45.892;4.738;2023-03-02T15:39:55;14.30;71.80
54516;DHT22;40422;45.892;4.738;2023-03-02T15:42:21;13.80;72.90
54516;DHT22;40422;45.892;4.738;2023-03-02T15:44:47;13.60;73.60
54516;DHT22;40422;45.892;4.738;2023-03-02T15:47:12;13.40;74.80
54516;DHT22;40422;45.892;4.738;2023-03-02T15:49:38;13.40;74.50
54516;DHT22;40422;45.892;4.738;2023-03-02T15:52:04;13.30;74.30
54516;DHT22;40422;45.892;4.738;2023-03-02T15:54:29;13.10;75.10
54516;DHT22;40422;45.892;4.738;2023-03-02T15:56:55;13.30;75.00
54516;DHT22;40422;45.892;4.738;2023-03-02T15:59:23;13.30;75.80
54516;DHT22;40422;45.892;4.738;2023-03-02T16:01:49;13.10;75.10
54516;DHT22;40422;45.892;4.738;2023-03-02T16:04:15;12.90;76.00
54516;DHT22;40422;45.892;4.738;2023-03-02T16:06:41;12.80;76.00
54516;DHT22;40422;45.892;4.738;2023-03-02T16:09:07;12.80;76.40
54516;DHT22;40422;45.892;4.738;2023-03-02T16:11:33;12.70;76.30
54516;DHT22;40422;45.892;4.738;2023-03-02T16:13:58;12.70;76.60
54516;DHT22;40422;45.892;4.738;2023-03-02T16:16:24;12.50;77.60
54516;DHT22;40422;45.892;4.738;2023-03-02T16:18:51;12.40;77.70
54516;DHT22;40422;45.892;4.738;2023-03-02T16:21:17;12.30;78.00
54516;DHT22;40422;45.892;4.738;2023-03-02T16:23:43;12.20;78.40
54516;DHT22;40422;45.892;4.738;2023-03-02T16:26:12;12.10;78.60
54516;DHT22;40422;45.892;4.738;2023-03-02T16:28:39;12.10;78.80
54516;DHT22;40422;45.892;4.738;2023-03-02T16:31:07;11.90;78.70
54516;DHT22;40422;45.892;4.738;2023-03-02T16:33:34;11.80;79.90
54516;DHT22;40422;45.892;4.738;2023-03-02T16:35:59;11.70;80.40
54516;DHT22;40422;45.892;4.738;2023-03-02T16:38:25;11.60;80.90
54516;DHT22;40422;45.892;4.738;2023-03-02T16:40:51;11.50;81.20
54516;DHT22;40422;45.892;4.738;2023-03-02T16:43:19;11.20;81.50
54516;DHT22;40422;45.892;4.738;2023-03-02T16:45:45;11.20;82.50
54516;DHT22;40422;45.892;4.738;2023-03-02T16:48:11;11.10;82.30
54516;DHT22;40422;45.892;4.738;2023-03-02T16:50:37;11.00;82.70
54516;DHT22;40422;45.892;4.738;2023-03-02T16:53:03;10.80;83.10
54516;DHT22;40422;45.892;4.738;2023-03-02T16:55:28;10.60;83.60
54516;DHT22;40422;45.892;4.738;2023-03-02T16:57:54;10.50;84.40
54516;DHT22;40422;45.892;4.738;2023-03-02T17:00:21;10.30;85.00
54516;DHT22;40422;45.892;4.738;2023-03-02T17:02:47;10.30;85.40
54516;DHT22;40422;45.892;4.738;2023-03-02T17:05:14;10.20;86.10
54516;DHT22;40422;45.892;4.738;2023-03-02T17:07:40;10.00;86.70
54516;DHT22;40422;45.892;4.738;2023-03-02T17:10:08;9.80;87.50
54516;DHT22;40422;45.892;4.738;2023-03-02T17:12:33;9.60;88.10
54516;DHT22;40422;45.892;4.738;2023-03-02T17:14:59;9.50;88.80
54516;DHT22;40422;45.892;4.738;2023-03-02T17:17:25;9.40;89.70
54516;DHT22;40422;45.892;4.738;2023-03-02T17:19:50;9.20;90.20
54516;DHT22;40422;45.892;4.738;2023-03-02T17:22:16;9.10;90.70
54516;DHT22;40422;45.892;4.738;2023-03-02T17:24:42;9.00;90.80
54516;DHT22;40422;45.892;4.738;2023-03-02T17:27:08;8.90;91.10
54516;DHT22;40422;45.892;4.738;2023-03-02T17:29:34;8.80;91.10
54516;DHT22;40422;45.892;4.738;2023-03-02T17:31:59;8.70;91.40
54516;DHT22;40422;45.892;4.738;2023-03-02T17:34:25;8.60;91.50
54516;DHT22;40422;45.892;4.738;2023-03-02T17:36:58;8.50;92.00
54516;DHT22;40422;45.892;4.738;2023-03-02T17:39:25;8.40;92.40
54516;DHT22;40422;45.892;4.738;2023-03-02T17:41:52;8.30;92.60
54516;DHT22;40422;45.892;4.738;2023-03-02T17:44:18;8.20;93.20
54516;DHT22;40422;45.892;4.738;2023-03-02T17:46:44;8.10;93.50
54516;DHT22;40422;45.892;4.738;2023-03-02T17:49:10;8.00;93.70
54516;DHT22;40422;45.892;4.738;2023-03-02T17:51:36;7.90;94.10
54516;DHT22;40422;45.892;4.738;2023-03-02T17:54:01;7.80;94.40
54516;DHT22;40422;45.892;4.738;2023-03-02T17:56:27;7.70;94.70
54516;DHT22;40422;45.892;4.738;2023-03-02T17:58:56;7.60;95.30
54516;DHT22;40422;45.892;4.738;2023-03-02T18:01:22;7.50;96.00
54516;DHT22;40422;45.892;4.738;2023-03-02T18:03:48;7.30;96.30
54516;DHT22;40422;45.892;4.738;2023-03-02T18:06:13;7.20;97.00
54516;DHT22;40422;45.892;4.738;2023-03-02T18:08:42;7.10;97.50
54516;DHT22;40422;45.892;4.738;2023-03-02T18:11:08;7.00;98.30
54516;DHT22;40422;45.892;4.738;2023-03-02T18:13:33;6.90;98.60
54516;DHT22;40422;45.892;4.738;2023-03-02T18:15:59;6.70;99.30
54516;DHT22;40422;45.892;4.738;2023-03-02T18:18:25;6.60;99.80
54516;DHT22;40422;45.892;4.738;2023-03-02T18:20:53;6.60;99.90
54516;DHT22;40422;45.892;4.738;2023-03-02T18:23:19;6.50;99.90
54516;DHT22;40422;45.892;4.738;2023-03-02T18:25:46;6.40;99.90
54516;DHT22;40422;45.892;4.738;2023-03-02T18:28:11;6.30;99.90
54516;DHT22;40422;45.892;4.738;2023-03-02T18:30:37;6.30;99.90
54516;DHT22;40422;45.892;4.738;2023-03-02T18:33:03;6.20;99.90
54516;DHT22;40422;45.892;4.738;2023-03-02T18:35:29;6.20;99.90
54516;DHT22;40422;45.892;4.738;2023-03-02T18:37:54;6.10;99.90
54516;DHT22;40422;45.892;4.738;2023-03-02T18:40:20;6.10;99.90
54516;DHT22;40422;45.892;4.738;2023-03-02T18:42:46;6.00;99.90
54516;DHT22;40422;45.892;4.738;2023-03-02T18:45:22;5.90;99.90
54516;DHT22;40422;45.892;4.738;2023-03-02T18:47:48;5.80;99.90
54516;DHT22;40422;45.892;4.738;2023-03-02T18:50:14;5.80;99.90
54516;DHT22;40422;45.892;4.738;2023-03-02T18:52:39;5.70;99.90
54516;DHT22;40422;45.892;4.738;2023-03-02T18:55:05;5.70;99.90
54516;DHT22;40422;45.892;4.738;2023-03-02T18:57:33;5.60;99.90
54516;DHT22;40422;45.892;4.738;2023-03-02T18:59:59;5.50;99.90
54516;DHT22;40422;45.892;4.738;2023-03-02T19:02:25;5.50;99.90
54516;DHT22;40422;45.892;4.738;2023-03-02T19:04:50;5.50;99.90
54516;DHT22;40422;45.892;4.738;2023-03-02T19:07:16;5.40;99.90
54516;DHT22;40422;45.892;4.738;2023-03-02T19:09:42;5.40;99.90
54516;DHT22;40422;45.892;4.738;2023-03-02T19:12:07;5.30;99.90
54516;DHT22;40422;45.892;4.738;2023-03-02T19:14:33;5.20;99.90
54516;DHT22;40422;45.892;4.738;2023-03-02T19:16:59;5.20;99.90
54516;DHT22;40422;45.892;4.738;2023-03-02T19:19:25;5.20;99.90
54516;DHT22;40422;45.892;4.738;2023-03-02T19:21:51;5.10;99.90
54516;DHT22;40422;45.892;4.738;2023-03-02T19:24:16;5.10;99.90
54516;DHT22;40422;45.892;4.738;2023-03-02T19:26:42;5.00;99.90
54516;DHT22;40422;45.892;4.738;2023-03-02T19:29:07;5.00;99.90
54516;DHT22;40422;45.892;4.738;2023-03-02T19:31:37;5.00;99.90
54516;DHT22;40422;45.892;4.738;2023-03-02T19:34:02;4.90;99.90
54516;DHT22;40422;45.892;4.738;2023-03-02T19:36:30;4.90;99.90
54516;DHT22;40422;45.892;4.738;2023-03-02T19:38:55;4.90;99.90
54516;DHT22;40422;45.892;4.738;2023-03-02T19:41:21;4.90;99.90
54516;DHT22;40422;45.892;4.738;2023-03-02T19:43:47;4.90;99.90
54516;DHT22;40422;45.892;4.738;2023-03-02T19:46:14;4.90;99.90
54516;DHT22;40422;45.892;4.738;2023-03-02T19:48:40;4.80;99.90
54516;DHT22;40422;45.892;4.738;2023-03-02T19:51:06;4.80;99.90
54516;DHT22;40422;45.892;4.738;2023-03-02T19:53:34;4.80;99.90
54516;DHT22;40422;45.892;4.738;2023-03-02T19:56:03;4.70;99.90
54516;DHT22;40422;45.892;4.738;2023-03-02T19:58:32;4.60;99.90
54516;DHT22;40422;45.892;4.738;2023-03-02T20:00:58;4.60;99.90
54516;DHT22;40422;45.892;4.738;2023-03-02T20:03:24;4.50;99.90
54516;DHT22;40422;45.892;4.738;2023-03-02T20:05:49;4.50;99.90
54516;DHT22;40422;45.892;4.738;2023-03-02T20:08:15;4.40;99.90
54516;DHT22;40422;45.892;4.738;2023-03-02T20:10:44;4.30;99.90
54516;DHT22;40422;45.892;4.738;2023-03-02T20:13:10;4.30;99.90
54516;DHT22;40422;45.892;4.738;2023-03-02T20:15:40;4.30;99.90
54516;DHT22;40422;45.892;4.738;2023-03-02T20:18:08;4.20;99.90
54516;DHT22;40422;45.892;4.738;2023-03-02T20:20:34;4.10;99.90
54516;DHT22;40422;45.892;4.738;2023-03-02T20:23:00;4.00;99.90
54516;DHT22;40422;45.892;4.738;2023-03-02T20:25:26;4.00;99.90
54516;DHT22;40422;45.892;4.738;2023-03-02T20:27:53;3.90;99.90
54516;DHT22;40422;45.892;4.738;2023-03-02T20:30:28;3.90;99.90
54516;DHT22;40422;45.892;4.738;2023-03-02T20:32:55;3.90;99.90
54516;DHT22;40422;45.892;4.738;2023-03-02T20:35:22;3.90;99.90
54516;DHT22;40422;45.892;4.738;2023-03-02T20:37:48;3.90;99.90
54516;DHT22;40422;45.892;4.738;2023-03-02T20:40:15;3.80;99.90
54516;DHT22;40422;45.892;4.738;2023-03-02T20:42:40;3.80;99.90
54516;DHT22;40422;45.892;4.738;2023-03-02T20:45:08;3.80;99.90
54516;DHT22;40422;45.892;4.738;2023-03-02T20:47:34;3.70;99.90